createdAt,value
2023-05-07T00:01:18.204Z,99882.81
2023-05-07T00:03:52.818Z,99885.25
2023-05-07T00:06:27.747Z,99885.31
2023-05-07T00:09:02.061Z,99881.75
2023-05-07T00:11:37.076Z,99879.56
2023-05-07T00:14:10.227Z,99878.66
2023-05-07T00:16:43.203Z,99878.06
2023-05-07T00:19:18.448Z,99870.50
2023-05-07T00:21:54.645Z,99870.81
2023-05-07T00:24:28.864Z,99875.44
2023-05-07T00:27:01.691Z,99873.34
2023-05-07T00:29:34.594Z,99872.16
2023-05-07T00:32:07.611Z,99865.47
2023-05-07T00:34:41.171Z,99863.38
2023-05-07T00:37:14.070Z,99872.56
2023-05-07T00:39:48.324Z,99867.06
2023-05-07T00:42:21.522Z,99865.53
2023-05-07T00:44:54.518Z,99864.00
2023-05-07T00:47:27.516Z,99865.19
2023-05-07T00:50:00.900Z,99869.41
2023-05-07T00:52:33.667Z,99867.44
2023-05-07T00:55:08.950Z,99872.63
2023-05-07T00:57:42.811Z,99858.53
2023-05-07T01:00:16.148Z,99869.38
2023-05-07T01:02:49.175Z,99871.94
2023-05-07T01:05:24.072Z,99860.13
2023-05-07T01:07:57.677Z,99868.97
2023-05-07T01:10:32.581Z,99866.19
2023-05-07T01:13:06.106Z,99863.06
2023-05-07T01:15:39.271Z,99865.31
2023-05-07T01:18:12.441Z,99858.84
2023-05-07T01:20:45.588Z,99865.75
2023-05-07T01:23:20.162Z,99862.09
2023-05-07T01:25:53.686Z,99866.88
2023-05-07T01:28:26.894Z,99864.06
2023-05-07T01:31:03.708Z,99868.00
2023-05-07T01:33:37.515Z,99864.63
2023-05-07T01:36:11.479Z,99858.72
2023-05-07T01:38:47.044Z,99855.63
2023-05-07T01:41:20.612Z,99850.25
2023-05-07T01:43:54.074Z,99855.59
2023-05-07T01:46:28.471Z,99851.09
2023-05-07T01:49:01.516Z,99857.03
2023-05-07T01:51:35.122Z,99856.44
2023-05-07T01:54:09.422Z,99854.19
2023-05-07T01:56:42.264Z,99861.91
2023-05-07T01:59:15.281Z,99859.25
2023-05-07T02:01:48.697Z,99858.78
2023-05-07T02:04:21.668Z,99854.44
2023-05-07T02:06:54.728Z,99855.28
2023-05-07T02:09:29.187Z,99852.59
2023-05-07T02:12:02.506Z,99842.28
2023-05-07T02:14:35.432Z,99840.59
2023-05-07T02:17:09.687Z,99845.91
2023-05-07T02:19:42.484Z,99844.38
2023-05-07T02:22:15.201Z,99843.03
2023-05-07T02:24:50.188Z,99837.91
2023-05-07T02:27:23.005Z,99830.34
2023-05-07T02:29:55.807Z,99831.34
2023-05-07T02:32:28.621Z,99828.28
2023-05-07T02:35:01.912Z,99829.53
2023-05-07T02:37:34.854Z,99829.44
2023-05-07T02:40:10.221Z,99831.50
2023-05-07T02:42:43.163Z,99829.09
2023-05-07T02:45:16.557Z,99833.75
2023-05-07T02:47:49.575Z,99832.00
2023-05-07T02:50:22.558Z,99830.84
2023-05-07T02:52:55.464Z,99829.44
2023-05-07T02:55:29.690Z,99826.38
2023-05-07T02:58:02.442Z,99829.56
2023-05-07T03:00:35.411Z,99827.00
2023-05-07T03:03:08.188Z,99823.16
2023-05-07T03:05:41.062Z,99825.22
2023-05-07T03:08:14.227Z,99821.59
2023-05-07T03:10:48.707Z,99820.50
2023-05-07T03:13:21.605Z,99823.22
2023-05-07T03:15:54.759Z,99825.06
2023-05-07T03:18:27.646Z,99825.47
2023-05-07T03:21:01.021Z,99828.84
2023-05-07T03:23:33.926Z,99832.13
2023-05-07T03:26:08.558Z,99833.84
2023-05-07T03:28:41.386Z,99820.16
2023-05-07T03:31:14.209Z,99826.88
2023-05-07T03:33:54.006Z,99823.44
2023-05-07T03:36:27.657Z,99829.03
2023-05-07T03:39:00.592Z,99830.50
2023-05-07T03:41:35.033Z,99833.72
2023-05-07T03:44:07.871Z,99832.91
2023-05-07T03:46:41.465Z,99835.03
2023-05-07T03:49:14.272Z,99835.28
2023-05-07T03:51:48.955Z,99836.94
2023-05-07T03:54:21.952Z,99843.31
2023-05-07T03:56:56.190Z,99843.09
2023-05-07T03:59:29.020Z,99846.78
2023-05-07T04:02:03.737Z,99851.78
2023-05-07T04:04:38.199Z,99849.69
2023-05-07T04:07:11.570Z,99857.69
2023-05-07T04:09:44.513Z,99852.31
2023-05-07T04:12:18.682Z,99859.59
2023-05-07T04:14:51.504Z,99857.13
2023-05-07T04:17:24.309Z,99856.00
2023-05-07T04:19:57.237Z,99861.41
2023-05-07T04:22:30.073Z,99859.88
2023-05-07T04:25:03.355Z,99861.13
2023-05-07T04:27:38.731Z,99862.00
2023-05-07T04:30:12.808Z,99865.69
2023-05-07T04:32:46.123Z,99860.06
2023-05-07T04:35:19.051Z,99858.69
2023-05-07T04:37:51.995Z,99866.44
2023-05-07T04:40:24.916Z,99861.09
2023-05-07T04:42:59.128Z,99874.78
2023-05-07T04:45:32.120Z,99875.19
2023-05-07T04:48:05.910Z,99875.34
2023-05-07T04:50:39.493Z,99879.28
2023-05-07T04:53:12.611Z,99885.00
2023-05-07T04:55:46.019Z,99878.84
2023-05-07T04:58:20.269Z,99887.78
2023-05-07T05:00:53.364Z,99889.59
2023-05-07T05:03:26.394Z,99892.91
2023-05-07T05:06:00.480Z,99893.31
2023-05-07T05:08:33.362Z,99898.81
2023-05-07T05:11:06.474Z,99905.34
2023-05-07T05:13:40.606Z,99901.69
2023-05-07T05:16:13.529Z,99900.03
2023-05-07T05:18:46.721Z,99906.69
2023-05-07T05:21:20.119Z,99903.94
2023-05-07T05:23:53.177Z,99908.88
2023-05-07T05:26:25.963Z,99906.50
2023-05-07T05:29:00.158Z,99911.22
2023-05-07T05:31:33.038Z,99907.31
2023-05-07T05:34:05.957Z,99911.69
2023-05-07T05:36:38.759Z,99902.66
2023-05-07T05:39:11.647Z,99906.41
2023-05-07T05:41:44.755Z,99903.78
2023-05-07T05:44:19.040Z,99907.22
2023-05-07T05:46:52.085Z,99912.38
2023-05-07T05:49:25.048Z,99925.72
2023-05-07T05:51:58.004Z,99929.59
2023-05-07T05:54:30.837Z,99924.22
2023-05-07T05:57:05.138Z,99926.78
2023-05-07T05:59:39.406Z,99929.56
2023-05-07T06:02:12.334Z,99922.28
2023-05-07T06:04:45.127Z,99930.13
2023-05-07T06:07:18.236Z,99922.31
2023-05-07T06:09:51.186Z,99930.69
2023-05-07T06:12:24.041Z,99925.78
2023-05-07T06:14:58.184Z,99933.97
2023-05-07T06:17:31.541Z,99934.59
2023-05-07T06:20:04.670Z,99929.72
2023-05-07T06:22:37.511Z,99930.69
2023-05-07T06:25:10.910Z,99930.78
2023-05-07T06:27:43.837Z,99927.28
2023-05-07T06:30:18.258Z,99931.06
2023-05-07T06:32:51.185Z,99931.00
2023-05-07T06:35:24.024Z,99932.78
2023-05-07T06:37:57.038Z,99932.88
2023-05-07T06:40:30.072Z,99935.78
2023-05-07T06:43:02.933Z,99928.75
2023-05-07T06:45:37.331Z,99938.56
2023-05-07T06:48:10.126Z,99940.59
2023-05-07T06:50:43.844Z,99948.50
2023-05-07T06:53:16.706Z,99940.56
2023-05-07T06:55:49.697Z,99938.53
2023-05-07T06:58:22.591Z,99950.66
2023-05-07T07:00:56.915Z,99949.53
2023-05-07T07:03:29.909Z,99946.22
2023-05-07T07:06:03.231Z,99942.66
2023-05-07T07:08:36.316Z,99949.28
2023-05-07T07:11:09.114Z,99938.06
2023-05-07T07:13:42.383Z,99943.84
2023-05-07T07:16:17.053Z,99941.34
2023-05-07T07:18:50.172Z,99951.63
2023-05-07T07:21:23.541Z,99946.66
2023-05-07T07:23:56.583Z,99954.34
2023-05-07T07:26:29.923Z,99945.75
2023-05-07T07:29:03.128Z,99948.78
2023-05-07T07:31:37.459Z,99953.88
2023-05-07T07:34:10.576Z,99949.47
2023-05-07T07:36:46.589Z,99950.53
2023-05-07T07:39:20.056Z,99955.91
2023-05-07T07:41:53.124Z,99950.19
2023-05-07T07:44:26.118Z,99947.31
2023-05-07T07:47:00.706Z,99958.44
2023-05-07T07:49:33.874Z,99967.69
2023-05-07T07:52:06.940Z,99967.03
2023-05-07T07:54:40.031Z,99968.88
2023-05-07T07:57:13.097Z,99973.78
2023-05-07T07:59:46.096Z,99960.31
2023-05-07T08:02:20.643Z,99974.09
2023-05-07T08:04:53.784Z,99966.31
2023-05-07T08:07:27.068Z,99963.97
2023-05-07T08:09:59.999Z,99962.31
2023-05-07T08:12:33.126Z,99968.53
2023-05-07T08:15:06.582Z,99966.84
2023-05-07T08:17:41.074Z,99966.34
2023-05-07T08:20:14.281Z,99958.91
2023-05-07T08:22:50.045Z,99960.88
2023-05-07T08:25:23.246Z,99957.84
2023-05-07T08:27:56.487Z,99952.97
2023-05-07T08:30:29.552Z,99951.28
2023-05-07T08:33:03.993Z,99947.72
2023-05-07T08:35:37.335Z,99950.00
2023-05-07T08:38:10.609Z,99953.88
2023-05-07T08:40:43.711Z,99942.22
2023-05-07T08:43:17.162Z,99945.03
2023-05-07T08:45:51.824Z,99948.50
2023-05-07T08:48:27.702Z,99950.84
2023-05-07T08:51:01.172Z,99953.63
2023-05-07T08:53:35.425Z,99948.44
2023-05-07T08:56:09.431Z,99948.91
2023-05-07T08:58:42.507Z,99951.00
2023-05-07T09:01:16.620Z,99951.41
2023-05-07T09:03:52.261Z,99950.31
2023-05-07T09:06:25.391Z,99957.97
2023-05-07T09:08:59.468Z,99950.63
2023-05-07T09:11:32.588Z,99941.59
2023-05-07T09:14:06.207Z,99947.22
2023-05-07T09:16:40.859Z,99939.50
2023-05-07T09:19:15.339Z,99933.66
2023-05-07T09:21:48.407Z,99933.53
2023-05-07T09:24:21.389Z,99930.25
2023-05-07T09:26:54.340Z,99935.41
2023-05-07T09:29:27.345Z,99939.16
2023-05-07T09:32:00.264Z,99923.50
2023-05-07T09:34:34.835Z,99917.88
2023-05-07T09:37:08.441Z,99919.41
2023-05-07T09:39:42.917Z,99916.28
2023-05-07T09:42:19.263Z,99902.59
2023-05-07T09:44:52.830Z,99898.75
2023-05-07T09:47:26.842Z,99906.78
2023-05-07T09:50:02.133Z,99901.00
2023-05-07T09:52:36.604Z,99895.47
2023-05-07T09:55:09.852Z,99895.47
2023-05-07T09:57:44.234Z,99886.16
2023-05-07T10:00:18.222Z,99899.94
2023-05-07T10:02:54.235Z,99896.22
2023-05-07T10:05:29.710Z,99887.84
2023-05-07T10:08:04.866Z,99893.19
2023-05-07T10:10:38.224Z,99898.03
2023-05-07T10:13:12.646Z,99891.84
2023-05-07T10:15:45.919Z,99891.09
2023-05-07T10:18:19.632Z,99890.47
2023-05-07T10:20:55.225Z,99883.66
2023-05-07T10:23:29.364Z,99887.56
2023-05-07T10:26:03.648Z,99887.13
2023-05-07T10:28:39.492Z,99882.28
2023-05-07T10:31:20.940Z,99880.25
2023-05-07T10:33:55.063Z,99880.78
2023-05-07T10:36:29.795Z,99869.63
2023-05-07T10:39:02.977Z,99880.00
2023-05-07T10:41:36.083Z,99875.34
2023-05-07T10:44:09.493Z,99875.00
2023-05-07T10:46:42.475Z,99873.69
2023-05-07T10:49:16.891Z,99865.53
2023-05-07T10:52:11.218Z,99861.59
2023-05-07T10:54:44.484Z,99864.78
2023-05-07T10:57:36.775Z,99857.44
2023-05-07T11:00:39.061Z,99857.16
2023-05-07T11:03:13.038Z,99858.06
2023-05-07T11:05:46.866Z,99856.66
2023-05-07T11:08:21.272Z,99855.16
2023-05-07T11:10:55.333Z,99840.72
2023-05-07T11:13:44.677Z,99846.72
2023-05-07T11:16:21.250Z,99839.09
2023-05-07T11:18:55.000Z,99844.13
2023-05-07T11:21:34.760Z,99849.44
2023-05-07T11:24:09.718Z,99847.22
2023-05-07T11:26:47.093Z,99843.91
2023-05-07T11:29:22.729Z,99843.66
2023-05-07T11:31:56.966Z,99852.00
2023-05-07T11:34:30.181Z,99853.44
2023-05-07T11:37:04.089Z,99843.59
2023-05-07T11:39:38.477Z,99837.91
2023-05-07T11:42:26.446Z,99838.97
2023-05-07T11:44:59.561Z,99830.81
2023-05-07T11:47:32.851Z,99829.84
2023-05-07T11:50:07.005Z,99822.13
2023-05-07T11:52:42.378Z,99819.88
2023-05-07T11:55:23.225Z,99822.56
2023-05-07T11:57:56.130Z,99824.00
2023-05-07T12:00:29.267Z,99814.13
2023-05-07T12:03:05.808Z,99817.81
2023-05-07T12:05:43.082Z,99808.69
2023-05-07T12:08:16.501Z,99803.81
2023-05-07T12:10:52.472Z,99804.38
2023-05-07T12:13:26.161Z,99800.13
2023-05-07T12:16:02.329Z,99799.41
2023-05-07T12:18:36.187Z,99795.09
2023-05-07T12:21:10.007Z,99789.50
2023-05-07T12:26:17.128Z,99783.13
2023-05-07T12:28:50.266Z,99790.50
2023-05-07T12:31:23.374Z,99784.44
2023-05-07T12:33:56.538Z,99791.34
2023-05-07T12:36:38.705Z,99780.44
2023-05-07T12:39:12.176Z,99783.91
2023-05-07T12:44:19.348Z,99773.72
2023-05-07T12:46:52.902Z,99772.84
2023-05-07T12:49:26.643Z,99768.56
2023-05-07T12:52:01.099Z,99772.16
2023-05-07T12:54:34.665Z,99761.47
2023-05-07T12:57:08.191Z,99769.03
2023-05-07T12:59:43.362Z,99769.50
2023-05-07T13:04:51.569Z,99757.22
2023-05-07T13:07:28.264Z,99762.78
2023-05-07T13:10:02.615Z,99761.72
2023-05-07T13:12:37.191Z,99754.38
2023-05-07T13:15:12.105Z,99754.72
2023-05-07T13:17:45.529Z,99755.94
2023-05-07T13:20:18.552Z,99761.19
2023-05-07T13:22:51.769Z,99762.16
2023-05-07T13:25:24.737Z,99761.19
2023-05-07T13:28:09.472Z,99762.78
2023-05-07T13:30:44.300Z,99753.84
2023-05-07T13:33:20.826Z,99745.91
2023-05-07T13:35:54.217Z,99743.81
2023-05-07T13:38:27.255Z,99752.44
2023-05-07T13:41:00.349Z,99741.25
2023-05-07T13:43:34.670Z,99734.19
2023-05-07T13:46:10.283Z,99746.66
2023-05-07T13:48:43.708Z,99740.00
2023-05-07T13:51:16.551Z,99740.38
2023-05-07T13:53:49.539Z,99741.66
2023-05-07T13:56:22.451Z,99738.72
2023-05-07T13:59:00.239Z,99734.53
2023-05-07T14:01:35.240Z,99751.00
2023-05-07T14:04:09.778Z,99758.41
2023-05-07T14:06:42.695Z,99746.69
2023-05-07T14:09:15.627Z,99750.84
2023-05-07T14:11:52.154Z,99750.75
2023-05-07T14:14:25.089Z,99752.97
2023-05-07T14:16:59.503Z,99755.41
2023-05-07T14:19:32.529Z,99751.16
2023-05-07T14:22:05.428Z,99747.84
2023-05-07T14:24:39.671Z,99741.25
2023-05-07T14:27:13.553Z,99738.34
2023-05-07T14:29:46.567Z,99732.22
2023-05-07T14:32:20.846Z,99729.94
2023-05-07T14:34:53.784Z,99740.00
2023-05-07T14:37:26.584Z,99743.19
2023-05-07T14:39:59.377Z,99731.94
2023-05-07T14:42:32.165Z,99720.44
2023-05-07T14:45:05.754Z,99723.19
2023-05-07T14:47:40.244Z,99720.88
2023-05-07T14:50:13.396Z,99730.06
2023-05-07T14:52:46.394Z,99728.38
2023-05-07T14:55:19.271Z,99734.59
2023-05-07T14:57:52.184Z,99729.16
2023-05-07T15:00:25.209Z,99724.97
2023-05-07T15:03:05.300Z,99723.38
2023-05-07T15:05:38.834Z,99729.94
2023-05-07T15:08:12.025Z,99733.25
2023-05-07T15:10:45.060Z,99729.56
2023-05-07T15:13:17.925Z,99735.28
2023-05-07T15:15:50.815Z,99740.69
2023-05-07T15:18:25.612Z,99727.41
2023-05-07T15:20:59.092Z,99725.31
2023-05-07T15:23:32.781Z,99723.06
2023-05-07T15:26:06.142Z,99718.78
2023-05-07T15:31:13.392Z,99718.59
2023-05-07T15:33:48.555Z,99706.56
2023-05-07T15:36:21.953Z,99714.47
2023-05-07T15:38:54.834Z,99713.50
2023-05-07T15:41:27.636Z,99713.16
2023-05-07T15:44:00.578Z,99713.94
2023-05-07T15:46:33.590Z,99707.94
2023-05-07T15:49:08.448Z,99715.19
2023-05-07T15:51:41.367Z,99714.88
2023-05-07T15:54:14.390Z,99709.59
2023-05-07T15:56:47.241Z,99714.81
2023-05-07T15:59:20.103Z,99700.75
2023-05-07T16:01:53.564Z,99703.94
2023-05-07T16:04:29.292Z,99706.53
2023-05-07T16:07:02.603Z,99704.41
2023-05-07T16:09:35.689Z,99706.25
2023-05-07T16:12:08.764Z,99696.44
2023-05-07T16:14:41.686Z,99697.50
2023-05-07T16:17:14.760Z,99699.28
2023-05-07T16:19:49.213Z,99699.56
2023-05-07T16:22:22.113Z,99708.91
2023-05-07T16:24:55.086Z,99713.81
2023-05-07T16:27:27.950Z,99710.97
2023-05-07T16:30:01.373Z,99712.97
2023-05-07T16:32:34.792Z,99716.50
2023-05-07T16:35:09.591Z,99715.88
2023-05-07T16:37:42.863Z,99716.13
2023-05-07T16:40:15.699Z,99720.94
2023-05-07T16:42:48.554Z,99724.88
2023-05-07T16:45:21.428Z,99731.09
2023-05-07T16:47:54.832Z,99724.06
2023-05-07T16:50:29.208Z,99726.97
2023-05-07T16:53:01.990Z,99726.44
2023-05-07T16:55:38.878Z,99726.66
2023-05-07T16:58:12.880Z,99729.16
2023-05-07T17:03:21.539Z,99733.19
2023-05-07T17:05:56.218Z,99728.47
2023-05-07T17:08:29.261Z,99726.88
2023-05-07T17:11:02.224Z,99734.75
2023-05-07T17:13:35.696Z,99734.00
2023-05-07T17:16:09.000Z,99725.03
2023-05-07T17:18:42.194Z,99728.31
2023-05-07T17:21:16.356Z,99725.94
2023-05-07T17:23:49.360Z,99729.03
2023-05-07T17:26:22.395Z,99740.22
2023-05-07T17:28:55.319Z,99737.22
2023-05-07T17:31:28.312Z,99740.38
2023-05-07T17:34:01.228Z,99735.75
2023-05-07T17:36:35.425Z,99736.78
2023-05-07T17:39:08.661Z,99744.41
2023-05-07T17:41:41.561Z,99741.97
2023-05-07T17:44:14.402Z,99740.53
2023-05-07T17:46:47.254Z,99742.84
2023-05-07T17:49:20.161Z,99751.69
2023-05-07T17:51:55.762Z,99762.88
2023-05-07T17:54:30.360Z,99764.19
2023-05-07T17:57:03.819Z,99763.06
2023-05-07T17:59:37.155Z,99768.22
2023-05-07T18:02:10.220Z,99771.09
2023-05-07T18:04:43.154Z,99762.22
2023-05-07T18:07:17.243Z,99764.50
2023-05-07T18:09:50.276Z,99771.75
2023-05-07T18:12:24.452Z,99772.19
2023-05-07T18:14:58.636Z,99770.56
2023-05-07T18:17:31.488Z,99770.56
2023-05-07T18:20:05.865Z,99767.66
2023-05-07T18:22:40.447Z,99776.38
2023-05-07T18:25:13.654Z,99775.69
2023-05-07T18:27:46.461Z,99777.59
2023-05-07T18:30:19.544Z,99786.25
2023-05-07T18:32:52.606Z,99782.09
2023-05-07T18:35:25.627Z,99776.56
2023-05-07T18:37:59.937Z,99791.16
2023-05-07T18:40:33.060Z,99800.66
2023-05-07T18:43:07.198Z,99812.81
2023-05-07T18:45:40.446Z,99809.03
2023-05-07T18:48:13.375Z,99804.59
2023-05-07T18:50:46.603Z,99817.41
2023-05-07T18:53:20.965Z,99818.81
2023-05-07T18:55:54.483Z,99813.59
2023-05-07T18:58:27.693Z,99820.72
2023-05-07T19:01:01.388Z,99817.84
2023-05-07T19:03:34.221Z,99822.09
2023-05-07T19:06:10.239Z,99820.72
2023-05-07T19:08:44.930Z,99826.75
2023-05-07T19:11:18.133Z,99827.19
2023-05-07T19:13:51.172Z,99829.72
2023-05-07T19:16:24.414Z,99828.66
2023-05-07T19:18:57.350Z,99824.97
2023-05-07T19:21:30.544Z,99830.47
2023-05-07T19:24:05.402Z,99824.44
2023-05-07T19:26:39.708Z,99827.59
2023-05-07T19:29:18.225Z,99829.38
2023-05-07T19:31:51.942Z,99837.47
2023-05-07T19:34:25.077Z,99837.59
2023-05-07T19:36:58.480Z,99833.25
2023-05-07T19:39:32.806Z,99829.00
2023-05-07T19:42:06.088Z,99834.59
2023-05-07T19:44:39.075Z,99839.84
2023-05-07T19:47:14.278Z,99837.00
2023-05-07T19:49:47.107Z,99829.53
2023-05-07T19:52:20.439Z,99833.25
2023-05-07T19:54:55.042Z,99833.25
2023-05-07T19:57:30.296Z,99843.88
2023-05-07T20:00:03.201Z,99837.13
2023-05-07T20:02:36.712Z,99843.03
2023-05-07T20:05:11.271Z,99842.31
2023-05-07T20:07:47.175Z,99844.16
2023-05-07T20:10:21.631Z,99843.16
2023-05-07T20:12:57.321Z,99844.44
2023-05-07T20:15:30.368Z,99841.50
2023-05-07T20:18:03.299Z,99845.47
2023-05-07T20:20:36.546Z,99848.41
2023-05-07T20:23:09.485Z,99853.97
2023-05-07T20:25:44.252Z,99857.69
2023-05-07T20:28:17.388Z,99858.66
2023-05-07T20:30:50.576Z,99868.94
2023-05-07T20:33:23.774Z,99861.09
2023-05-07T20:35:58.678Z,99860.31
2023-05-07T20:38:33.917Z,99867.06
2023-05-07T20:41:08.940Z,99870.56
2023-05-07T20:43:42.103Z,99879.94
2023-05-07T20:46:15.348Z,99880.94
2023-05-07T20:48:48.218Z,99885.88
2023-05-07T20:51:21.492Z,99894.41
2023-05-07T20:53:56.819Z,99896.03
2023-05-07T20:56:31.330Z,99890.78
2023-05-07T20:59:04.392Z,99894.03
2023-05-07T21:01:37.292Z,99884.53
2023-05-07T21:04:12.971Z,99881.84
2023-05-07T21:06:46.141Z,99871.72
2023-05-07T21:09:19.227Z,99882.03
2023-05-07T21:11:54.032Z,99891.75
2023-05-07T21:14:27.524Z,99893.66
2023-05-07T21:17:00.869Z,99890.16
2023-05-07T21:19:35.813Z,99899.25
2023-05-07T21:22:10.835Z,99893.81
2023-05-07T21:24:43.871Z,99893.56
2023-05-07T21:27:18.127Z,99895.25
2023-05-07T21:29:51.085Z,99905.25
2023-05-07T21:32:24.166Z,99914.25
2023-05-07T21:34:57.413Z,99912.56
2023-05-07T21:37:30.520Z,99918.72
2023-05-07T21:40:03.445Z,99917.91
2023-05-07T21:42:37.741Z,99914.84
2023-05-07T21:45:11.223Z,99919.44
2023-05-07T21:47:44.109Z,99920.50
2023-05-07T21:50:17.141Z,99913.97
2023-05-07T21:52:50.412Z,99915.47
2023-05-07T21:55:23.604Z,99917.94
2023-05-07T21:58:04.689Z,99912.50
2023-05-07T22:00:38.937Z,99911.50
2023-05-07T22:03:11.837Z,99917.31
2023-05-07T22:05:44.856Z,99925.44
2023-05-07T22:08:17.592Z,99927.41
2023-05-07T22:10:50.432Z,99927.31
2023-05-07T22:13:25.108Z,99931.94
2023-05-07T22:15:58.787Z,99927.47
2023-05-07T22:18:31.815Z,99923.31
2023-05-07T22:21:04.948Z,99931.38
2023-05-07T22:23:37.871Z,99932.97
2023-05-07T22:26:11.374Z,99936.31
2023-05-07T22:28:45.768Z,99931.75
2023-05-07T22:31:18.971Z,99936.03
2023-05-07T22:33:51.764Z,99933.41
2023-05-07T22:36:25.912Z,99928.66
2023-05-07T22:38:59.394Z,99927.78
2023-05-07T22:41:32.341Z,99923.44
2023-05-07T22:44:06.899Z,99925.41
2023-05-07T22:46:41.156Z,99926.69
2023-05-07T22:49:13.977Z,99931.28
2023-05-07T22:51:47.377Z,99925.31
2023-05-07T22:54:20.184Z,99933.28
2023-05-07T22:56:53.542Z,99925.47
2023-05-07T22:59:27.766Z,99917.06
2023-05-07T23:02:00.840Z,99922.66
2023-05-07T23:04:33.750Z,99920.06
2023-05-07T23:07:06.707Z,99914.69
2023-05-07T23:09:39.639Z,99918.81
2023-05-07T23:12:12.460Z,99914.41
2023-05-07T23:14:46.684Z,99907.34
2023-05-07T23:17:19.809Z,99903.69
2023-05-07T23:19:52.613Z,99898.22
2023-05-07T23:22:25.571Z,99902.47
2023-05-07T23:24:58.362Z,99892.25
2023-05-07T23:27:31.543Z,99893.16
2023-05-07T23:30:06.414Z,99878.63
2023-05-07T23:32:39.350Z,99885.94
2023-05-07T23:35:12.282Z,99885.94
2023-05-07T23:37:45.244Z,99881.22
2023-05-07T23:40:18.778Z,99878.19
2023-05-07T23:42:51.730Z,99879.66
2023-05-07T23:45:26.460Z,99872.19
2023-05-07T23:48:00.420Z,99869.31
2023-05-07T23:50:33.392Z,99863.47
2023-05-07T23:53:06.364Z,99867.38
2023-05-07T23:55:39.272Z,99865.31
2023-05-07T23:58:13.012Z,99864.44
